createdAt,value
2023-02-24T00:00:39.880Z,73.68
2023-02-24T00:03:49.609Z,73.67
2023-02-24T00:06:51.646Z,73.79
2023-02-24T00:09:53.120Z,73.81
2023-02-24T00:12:54.628Z,73.70
2023-02-24T00:16:03.025Z,73.74
2023-02-24T00:19:05.623Z,73.92
2023-02-24T00:22:08.420Z,73.67
2023-02-24T00:25:10.037Z,73.80
2023-02-24T00:28:11.622Z,73.88
2023-02-24T00:31:14.393Z,73.87
2023-02-24T00:34:15.984Z,73.99
2023-02-24T00:37:17.657Z,74.05
2023-02-24T00:40:19.305Z,74.03
2023-02-24T00:43:20.864Z,73.98
2023-02-24T00:46:23.632Z,73.89
2023-02-24T00:49:25.219Z,74.10
2023-02-24T00:52:27.016Z,73.92
2023-02-24T00:55:28.694Z,73.93
2023-02-24T00:58:30.259Z,74.08
2023-02-24T01:01:33.530Z,74.05
2023-02-24T01:04:35.593Z,74.10
2023-02-24T01:07:37.872Z,74.03
2023-02-24T01:10:39.354Z,74.06
2023-02-24T01:13:41.354Z,74.21
2023-02-24T01:16:43.995Z,74.00
2023-02-24T01:19:46.761Z,74.17
2023-02-24T01:22:52.216Z,74.23
2023-02-24T01:25:53.887Z,74.22
2023-02-24T01:28:55.373Z,74.29
2023-02-24T01:31:57.601Z,74.21
2023-02-24T01:34:59.364Z,74.33
2023-02-24T01:38:01.102Z,74.26
2023-02-24T01:41:02.868Z,74.32
2023-02-24T01:44:29.992Z,74.38
2023-02-24T01:47:31.619Z,74.61
2023-02-24T01:50:34.848Z,74.39
2023-02-24T01:53:36.684Z,74.38
2023-02-24T01:56:39.008Z,74.41
2023-02-24T01:59:40.614Z,74.41
2023-02-24T02:02:46.752Z,74.40
2023-02-24T02:05:50.028Z,74.49
2023-02-24T02:08:52.225Z,74.29
2023-02-24T02:11:53.949Z,74.57
2023-02-24T02:14:56.165Z,74.57
2023-02-24T02:18:03.661Z,74.71
2023-02-24T02:21:08.421Z,74.78
2023-02-24T02:24:20.413Z,75.16
2023-02-24T02:27:24.916Z,75.62
2023-02-24T02:30:59.677Z,76.15
2023-02-24T02:34:24.517Z,76.32
2023-02-24T02:37:34.677Z,76.32
2023-02-24T02:40:42.900Z,75.92
2023-02-24T02:44:05.203Z,75.63
2023-02-24T02:47:14.649Z,75.07
2023-02-24T02:50:35.753Z,74.67
2023-02-24T02:53:48.477Z,74.45
2023-02-24T02:56:56.847Z,74.33
2023-02-24T03:00:20.052Z,74.06
2023-02-24T03:03:22.064Z,73.79
2023-02-24T03:06:29.550Z,73.50
2023-02-24T03:09:35.690Z,73.49
2023-02-24T03:12:40.017Z,73.31
2023-02-24T03:15:41.758Z,73.18
2023-02-24T03:18:57.997Z,73.28
2023-02-24T03:22:21.569Z,73.41
2023-02-24T03:25:26.283Z,73.43
2023-02-24T03:28:32.814Z,73.43
2023-02-24T03:31:37.216Z,73.47
2023-02-24T03:34:56.848Z,73.53
2023-02-24T03:37:59.248Z,73.56
2023-02-24T03:41:00.807Z,73.68
2023-02-24T03:44:02.331Z,73.47
2023-02-24T03:47:04.459Z,73.80
2023-02-24T03:50:17.885Z,74.22
2023-02-24T03:53:38.807Z,74.82
2023-02-24T03:56:50.260Z,74.77
2023-02-24T04:00:14.833Z,74.96
2023-02-24T04:03:35.150Z,75.21
2023-02-24T04:06:43.987Z,75.49
2023-02-24T04:10:07.647Z,75.39
2023-02-24T04:13:25.664Z,75.66
2023-02-24T04:16:30.932Z,75.93
2023-02-24T04:19:36.416Z,76.47
2023-02-24T04:22:39.222Z,76.53
2023-02-24T04:25:43.196Z,76.92
2023-02-24T04:28:45.655Z,77.01
2023-02-24T04:31:51.175Z,77.48
2023-02-24T04:34:53.163Z,76.93
2023-02-24T04:37:55.244Z,77.12
2023-02-24T04:40:56.929Z,77.45
2023-02-24T04:43:58.664Z,77.07
2023-02-24T04:47:00.137Z,76.74
2023-02-24T04:50:02.483Z,76.33
2023-02-24T04:53:07.426Z,76.29
2023-02-24T04:56:09.343Z,76.23
2023-02-24T04:59:11.821Z,76.19
2023-02-24T05:02:13.445Z,76.01
2023-02-24T05:05:15.589Z,75.73
2023-02-24T05:08:17.882Z,75.15
2023-02-24T05:11:20.043Z,75.11
2023-02-24T05:14:21.891Z,75.31
2023-02-24T05:17:23.383Z,75.45
2023-02-24T05:20:25.318Z,75.49
2023-02-24T05:23:38.366Z,75.48
2023-02-24T05:26:40.152Z,75.63
2023-02-24T05:29:41.726Z,75.66
2023-02-24T05:32:43.246Z,75.82
2023-02-24T05:35:45.061Z,75.92
2023-02-24T05:38:47.069Z,76.26
2023-02-24T05:41:49.883Z,76.42
2023-02-24T05:44:51.509Z,76.71
2023-02-24T05:47:52.969Z,76.72
2023-02-24T05:50:54.684Z,76.76
2023-02-24T05:53:56.209Z,76.95
2023-02-24T05:57:04.393Z,76.94
2023-02-24T06:00:06.712Z,77.33
2023-02-24T06:03:08.497Z,77.08
2023-02-24T06:06:10.360Z,77.76
2023-02-24T06:09:12.326Z,77.63
2023-02-24T06:12:14.004Z,78.42
2023-02-24T06:15:15.633Z,78.29
2023-02-24T06:18:17.187Z,78.40
2023-02-24T06:21:19.391Z,78.12
2023-02-24T06:24:21.195Z,77.95
2023-02-24T06:27:22.776Z,77.88
2023-02-24T06:30:25.798Z,77.97
2023-02-24T06:33:27.314Z,78.19
2023-02-24T06:36:28.865Z,78.29
2023-02-24T06:39:30.871Z,78.24
2023-02-24T06:42:32.300Z,77.96
2023-02-24T06:45:33.993Z,78.13
2023-02-24T06:48:35.511Z,78.01
2023-02-24T06:51:37.158Z,78.11
2023-02-24T06:54:38.783Z,78.00
2023-02-24T06:57:40.595Z,78.04
2023-02-24T07:00:42.174Z,77.91
2023-02-24T07:03:43.957Z,77.41
2023-02-24T07:06:48.338Z,77.13
2023-02-24T07:09:49.862Z,77.59
2023-02-24T07:12:51.394Z,77.49
2023-02-24T07:15:53.112Z,77.65
2023-02-24T07:18:55.185Z,77.80
2023-02-24T07:21:58.376Z,77.62
2023-02-24T07:24:59.949Z,77.69
2023-02-24T07:28:02.082Z,77.55
2023-02-24T07:31:06.267Z,77.55
2023-02-24T07:34:08.161Z,77.30
2023-02-24T07:37:11.694Z,77.38
2023-02-24T07:40:13.892Z,77.15
2023-02-24T07:43:16.704Z,77.10
2023-02-24T07:46:23.381Z,77.15
2023-02-24T07:49:25.691Z,77.21
2023-02-24T07:52:30.364Z,77.12
2023-02-24T07:55:34.345Z,76.75
2023-02-24T07:58:35.906Z,76.77
2023-02-24T08:01:37.997Z,76.84
2023-02-24T08:04:39.745Z,76.69
2023-02-24T08:07:41.430Z,76.83
2023-02-24T08:10:43.168Z,76.62
2023-02-24T08:13:45.053Z,76.53
2023-02-24T08:16:49.227Z,76.61
2023-02-24T08:19:51.929Z,76.60
2023-02-24T08:22:54.514Z,76.54
2023-02-24T08:25:56.114Z,76.70
2023-02-24T08:28:58.413Z,76.38
2023-02-24T08:32:00.355Z,76.54
2023-02-24T08:35:05.130Z,76.44
2023-02-24T08:38:15.087Z,76.55
2023-02-24T08:41:18.839Z,76.55
2023-02-24T08:44:20.579Z,76.26
2023-02-24T08:47:22.319Z,75.97
2023-02-24T08:50:24.144Z,75.94
2023-02-24T08:53:25.748Z,75.38
2023-02-24T08:56:32.432Z,75.15
2023-02-24T08:59:36.610Z,75.38
2023-02-24T09:02:38.191Z,74.68
2023-02-24T09:05:40.084Z,74.72
2023-02-24T09:08:43.010Z,74.36
2023-02-24T09:11:46.945Z,74.59
2023-02-24T09:14:49.632Z,74.76
2023-02-24T09:17:51.986Z,74.78
2023-02-24T09:20:53.458Z,74.79
2023-02-24T09:23:55.010Z,74.56
2023-02-24T09:26:57.104Z,74.82
2023-02-24T09:29:58.937Z,74.95
2023-02-24T09:33:00.668Z,74.94
2023-02-24T09:36:05.667Z,75.13
2023-02-24T09:39:08.390Z,74.97
2023-02-24T09:42:12.119Z,73.86
2023-02-24T09:45:20.773Z,73.11
2023-02-24T09:48:37.478Z,73.47
2023-02-24T09:51:39.100Z,73.44
2023-02-24T09:54:40.876Z,72.82
2023-02-24T09:58:07.477Z,73.17
2023-02-24T10:01:15.338Z,73.51
2023-02-24T10:04:43.996Z,73.39
2023-02-24T10:07:46.497Z,73.40
2023-02-24T10:10:48.355Z,73.43
2023-02-24T10:13:53.794Z,73.55
2023-02-24T10:16:56.613Z,73.46
2023-02-24T10:20:11.626Z,74.33
2023-02-24T10:23:20.148Z,73.91
2023-02-24T10:27:07.921Z,73.79
2023-02-24T10:30:30.806Z,73.55
2023-02-24T10:33:38.690Z,73.83
2023-02-24T10:36:40.412Z,73.79
2023-02-24T10:39:42.155Z,74.01
2023-02-24T10:42:43.950Z,74.12
2023-02-24T10:45:47.469Z,74.35
2023-02-24T10:48:57.500Z,74.45
2023-02-24T10:51:59.219Z,74.23
2023-02-24T10:55:00.775Z,74.21
2023-02-24T10:58:03.199Z,74.17
2023-02-24T11:01:16.061Z,73.48
2023-02-24T11:04:18.775Z,73.49
2023-02-24T11:07:20.971Z,73.08
2023-02-24T11:10:24.301Z,73.49
2023-02-24T11:13:26.537Z,73.16
2023-02-24T11:16:28.184Z,72.72
2023-02-24T11:19:31.551Z,73.01
2023-02-24T11:22:40.078Z,73.01
2023-02-24T11:25:46.217Z,72.22
2023-02-24T11:29:03.899Z,72.34
2023-02-24T11:32:27.735Z,71.95
2023-02-24T11:35:33.599Z,71.75
2023-02-24T11:39:21.757Z,72.25
2023-02-24T11:42:46.248Z,70.39
2023-02-24T11:45:54.663Z,69.27
2023-02-24T11:48:58.617Z,69.67
2023-02-24T11:52:01.303Z,70.44
2023-02-24T11:55:05.464Z,70.58
2023-02-24T11:58:17.138Z,69.87
2023-02-24T12:01:28.029Z,68.77
2023-02-24T12:04:36.724Z,69.01
2023-02-24T12:07:42.730Z,68.52
2023-02-24T12:10:49.926Z,67.92
2023-02-24T12:14:04.625Z,68.52
2023-02-24T12:17:33.968Z,66.82
2023-02-24T12:20:51.396Z,64.79
2023-02-24T12:23:53.011Z,64.87
2023-02-24T12:27:19.513Z,64.85
2023-02-24T12:30:21.127Z,66.81
2023-02-24T12:33:35.713Z,67.84
2023-02-24T12:36:53.844Z,67.46
2023-02-24T12:40:01.446Z,67.95
2023-02-24T12:43:36.134Z,67.83
2023-02-24T12:46:38.969Z,67.33
2023-02-24T12:49:59.413Z,68.32
2023-02-24T12:53:19.592Z,68.14
2023-02-24T12:56:25.250Z,68.06
2023-02-24T12:59:32.246Z,69.27
2023-02-24T13:02:44.926Z,69.45
2023-02-24T13:05:52.750Z,69.42
2023-02-24T13:09:15.564Z,69.53
2023-02-24T13:12:38.950Z,69.46
2023-02-24T13:15:50.455Z,69.64
2023-02-24T13:18:52.127Z,69.85
2023-02-24T13:22:17.021Z,69.35
2023-02-24T13:25:21.591Z,69.88
2023-02-24T13:28:34.027Z,69.69
2023-02-24T13:31:44.573Z,69.64
2023-02-24T13:34:46.612Z,69.76
2023-02-24T13:37:48.607Z,69.76
2023-02-24T13:40:50.276Z,69.86
2023-02-24T13:44:00.361Z,70.12
2023-02-24T13:47:13.333Z,70.46
2023-02-24T13:50:24.042Z,70.50
2023-02-24T13:54:12.416Z,70.87
2023-02-24T13:57:35.687Z,70.88
2023-02-24T14:01:02.753Z,71.11
2023-02-24T14:04:39.263Z,71.01
2023-02-24T14:07:40.900Z,70.89
2023-02-24T14:10:44.650Z,71.08
2023-02-24T14:13:50.166Z,71.06
2023-02-24T14:16:51.940Z,71.14
2023-02-24T14:19:53.640Z,71.16
2023-02-24T14:22:57.745Z,71.33
2023-02-24T14:26:00.202Z,71.61
2023-02-24T14:29:02.317Z,71.48
2023-02-24T14:32:04.002Z,71.59
2023-02-24T14:35:06.027Z,71.59
2023-02-24T14:38:37.582Z,71.70
2023-02-24T14:41:39.299Z,71.91
2023-02-24T14:44:50.097Z,71.74
2023-02-24T14:47:53.268Z,70.33
2023-02-24T14:51:04.632Z,69.68
2023-02-24T14:54:08.110Z,69.08
2023-02-24T14:57:17.605Z,69.18
2023-02-24T15:00:25.387Z,68.79
2023-02-24T15:03:29.709Z,69.34
2023-02-24T15:06:33.297Z,68.58
2023-02-24T15:09:42.394Z,68.37
2023-02-24T15:12:46.832Z,68.08
2023-02-24T15:15:48.428Z,68.09
2023-02-24T15:18:55.287Z,68.65
2023-02-24T15:21:56.991Z,68.33
2023-02-24T15:25:24.065Z,67.90
2023-02-24T15:28:37.416Z,68.90
2023-02-24T15:31:39.401Z,69.74
2023-02-24T15:34:44.675Z,69.77
2023-02-24T15:37:46.269Z,70.12
2023-02-24T15:40:53.595Z,70.02
2023-02-24T15:43:55.461Z,70.30
2023-02-24T15:46:58.729Z,70.62
2023-02-24T15:50:00.412Z,70.37
2023-02-24T15:53:04.359Z,70.55
2023-02-24T15:56:06.057Z,70.63
2023-02-24T15:59:07.992Z,71.37
2023-02-24T16:02:14.785Z,70.85
2023-02-24T16:05:16.570Z,71.07
2023-02-24T16:08:19.600Z,71.42
2023-02-24T16:11:25.582Z,71.43
2023-02-24T16:14:27.239Z,71.38
2023-02-24T16:17:41.748Z,71.29
2023-02-24T16:20:43.803Z,71.86
2023-02-24T16:23:45.528Z,72.57
2023-02-24T16:26:47.109Z,72.91
2023-02-24T16:29:49.824Z,72.67
2023-02-24T16:32:51.718Z,72.74
2023-02-24T16:35:53.709Z,73.02
2023-02-24T16:38:55.247Z,73.05
2023-02-24T16:41:56.717Z,73.33
2023-02-24T16:44:58.285Z,73.52
2023-02-24T16:48:02.514Z,73.88
2023-02-24T16:51:06.220Z,74.00
2023-02-24T16:54:07.836Z,74.16
2023-02-24T16:57:09.983Z,74.25
2023-02-24T17:00:13.963Z,74.29
2023-02-24T17:03:41.766Z,74.04
2023-02-24T17:06:43.314Z,74.55
2023-02-24T17:09:44.895Z,74.75
2023-02-24T17:12:46.540Z,74.65
2023-02-24T17:15:50.666Z,74.78
2023-02-24T17:18:52.228Z,75.16
2023-02-24T17:21:53.798Z,74.95
2023-02-24T17:24:55.503Z,74.67
2023-02-24T17:27:57.856Z,74.77
2023-02-24T17:30:59.555Z,75.04
2023-02-24T17:34:01.262Z,75.56
2023-02-24T17:37:02.712Z,75.52
2023-02-24T17:40:06.552Z,75.64
2023-02-24T17:43:08.584Z,75.91
2023-02-24T17:46:10.189Z,75.73
2023-02-24T17:49:11.765Z,75.95
2023-02-24T17:52:13.414Z,76.13
2023-02-24T17:55:15.300Z,75.99
2023-02-24T17:58:16.964Z,76.14
2023-02-24T18:01:18.490Z,76.24
2023-02-24T18:04:20.047Z,76.13
2023-02-24T18:07:21.604Z,76.14
2023-02-24T18:10:23.129Z,76.48
2023-02-24T18:13:25.819Z,76.10
2023-02-24T18:16:28.143Z,76.31
2023-02-24T18:19:29.956Z,77.43
2023-02-24T18:22:31.605Z,78.04
2023-02-24T18:25:33.696Z,77.94
2023-02-24T18:28:35.489Z,77.74
2023-02-24T18:31:37.197Z,76.86
2023-02-24T18:34:39.184Z,77.78
2023-02-24T18:37:40.755Z,77.33
2023-02-24T18:40:42.307Z,77.15
2023-02-24T18:43:47.281Z,76.92
2023-02-24T18:46:48.949Z,77.33
2023-02-24T18:49:50.613Z,77.17
2023-02-24T18:52:52.047Z,77.06
2023-02-24T18:56:05.179Z,76.95
2023-02-24T18:59:06.820Z,77.37
2023-02-24T19:02:09.483Z,77.21
2023-02-24T19:05:11.238Z,76.95
2023-02-24T19:08:12.870Z,76.91
2023-02-24T19:11:16.899Z,76.53
2023-02-24T19:14:19.262Z,76.45
2023-02-24T19:17:21.065Z,76.53
2023-02-24T19:20:22.596Z,76.33
2023-02-24T19:23:24.318Z,76.41
2023-02-24T19:26:28.026Z,76.40
2023-02-24T19:29:29.680Z,76.54
2023-02-24T19:32:31.254Z,76.43
2023-02-24T19:35:34.063Z,76.31
2023-02-24T19:38:36.107Z,76.40
2023-02-24T19:41:37.631Z,76.10
2023-02-24T19:44:39.150Z,75.76
2023-02-24T19:47:41.183Z,76.10
2023-02-24T19:50:42.782Z,76.19
2023-02-24T19:53:44.995Z,76.42
2023-02-24T19:56:46.624Z,76.59
2023-02-24T19:59:50.235Z,76.59
2023-02-24T20:02:52.382Z,76.77
2023-02-24T20:05:54.117Z,76.91
2023-02-24T20:08:56.386Z,77.05
2023-02-24T20:11:57.993Z,77.02
2023-02-24T20:14:59.516Z,76.73
2023-02-24T20:18:01.087Z,76.73
2023-02-24T20:21:02.865Z,76.73
2023-02-24T20:24:05.729Z,76.51
2023-02-24T20:27:07.290Z,76.48
2023-02-24T20:30:09.313Z,76.37
2023-02-24T20:33:11.013Z,76.33
2023-02-24T20:36:14.317Z,76.38
2023-02-24T20:39:16.580Z,76.35
2023-02-24T20:42:18.201Z,76.24
2023-02-24T20:45:19.742Z,76.31
2023-02-24T20:48:21.299Z,76.22
2023-02-24T20:51:23.229Z,76.18
2023-02-24T20:54:25.891Z,76.56
2023-02-24T20:57:27.971Z,76.80
2023-02-24T21:00:29.557Z,76.91
2023-02-24T21:03:31.013Z,77.03
2023-02-24T21:06:32.680Z,76.93
2023-02-24T21:09:34.229Z,76.78
2023-02-24T21:12:35.930Z,76.52
2023-02-24T21:15:37.632Z,76.62
2023-02-24T21:18:40.767Z,76.63
2023-02-24T21:21:42.320Z,76.53
2023-02-24T21:24:44.074Z,76.42
2023-02-24T21:27:45.983Z,76.33
2023-02-24T21:30:47.903Z,76.14
2023-02-24T21:33:51.266Z,76.44
2023-02-24T21:36:52.839Z,76.51
2023-02-24T21:39:54.378Z,76.43
2023-02-24T21:42:56.012Z,76.53
2023-02-24T21:46:00.636Z,76.57
2023-02-24T21:49:02.434Z,76.73
2023-02-24T21:52:04.050Z,76.54
2023-02-24T21:55:07.220Z,76.20
2023-02-24T21:58:08.835Z,76.37
2023-02-24T22:01:11.211Z,76.51
2023-02-24T22:04:15.810Z,76.57
2023-02-24T22:07:17.402Z,76.72
2023-02-24T22:10:21.681Z,75.89
2023-02-24T22:13:23.191Z,74.55
2023-02-24T22:16:25.622Z,74.12
2023-02-24T22:19:27.757Z,72.83
2023-02-24T22:22:29.492Z,73.17
2023-02-24T22:25:31.023Z,73.10
2023-02-24T22:28:36.562Z,72.41
2023-02-24T22:31:38.267Z,72.52
2023-02-24T22:34:39.873Z,72.79
2023-02-24T22:37:41.360Z,73.12
2023-02-24T22:40:42.930Z,73.68
2023-02-24T22:43:44.725Z,74.21
2023-02-24T22:46:46.960Z,74.88
2023-02-24T22:49:48.629Z,76.12
2023-02-24T22:52:50.169Z,78.67
2023-02-24T22:55:52.313Z,79.57
2023-02-24T22:58:53.917Z,78.58
2023-02-24T23:01:55.422Z,79.38
2023-02-24T23:04:57.036Z,80.67
2023-02-24T23:07:58.476Z,81.97
2023-02-24T23:11:09.445Z,82.05
2023-02-24T23:14:12.981Z,82.45
2023-02-24T23:17:14.736Z,82.06
2023-02-24T23:20:16.984Z,80.89
2023-02-24T23:23:18.532Z,80.99
2023-02-24T23:26:20.486Z,81.04
2023-02-24T23:29:23.561Z,80.44
2023-02-24T23:32:25.292Z,79.83
2023-02-24T23:35:27.021Z,80.16
2023-02-24T23:38:28.578Z,79.90
2023-02-24T23:41:30.151Z,79.38
2023-02-24T23:44:31.619Z,79.37
2023-02-24T23:47:33.365Z,80.28
2023-02-24T23:50:38.855Z,79.78
2023-02-24T23:53:42.482Z,79.56
2023-02-24T23:56:44.146Z,79.14
2023-02-24T23:59:45.848Z,78.73
